Time;durP1;ratioP1;P1;durP2;ratioP2;P2;SDS_P1;SDS_P2;PMS_P1;PMS_P2;Temp;Humidity;BMP_temperature;BMP_pressure;BME280_temperature;BME280_humidity;BME280_pressure;Samples;Min_cycle;Max_cycle;Signal;HPM_P1;HPM_P2
2023/01/17 00:01:17;;;;;;;16.30;2.17;;;;;;;13.02;100.00;98131.38;5062159;28;20045;-58
2023/01/17 00:11:58;;;;;;;11.80;1.70;;;;;;;12.14;100.00;98155.09;5063644;28;20067;-59
2023/01/17 00:14:24;;;;;;;8.50;2.85;;;;;;;12.09;100.00;98153.22;5060532;28;20034;-58
2023/01/17 00:16:50;;;;;;;5.53;1.30;;;;;;;12.60;100.00;98167.53;5062653;28;20088;-59
2023/01/17 01:33:52;;;;;;;2.97;0.50;;;;;;;11.01;100.00;98268.97;5062052;28;20052;-59
2023/01/17 01:36:18;;;;;;;0.70;0.40;;;;;;;11.35;100.00;98273.91;5060257;28;20032;-59
2023/01/17 01:38:44;;;;;;;0.30;0.30;;;;;;;11.46;100.00;98277.41;5059869;28;20034;-57
2023/01/17 01:41:10;;;;;;;2.40;0.40;;;;;;;11.35;100.00;98284.59;5060049;28;20089;-59
2023/01/17 01:43:47;;;;;;;0.20;0.20;;;;;;;10.83;100.00;98299.63;5059034;28;20348;-59
2023/01/17 01:46:22;;;;;;;2.80;0.40;;;;;;;11.36;100.00;98312.19;5054727;28;20409;-58
2023/01/17 01:48:55;;;;;;;1.27;0.40;;;;;;;11.05;100.00;98310.97;5053871;28;20033;-59
2023/01/17 01:51:26;;;;;;;3.22;1.33;;;;;;;10.37;100.00;98318.84;5066781;28;20040;-59
2023/01/17 01:53:58;;;;;;;11.38;2.25;;;;;;;10.38;100.00;98320.44;5057624;28;20052;-59
2023/01/17 01:56:25;;;;;;;8.85;2.30;;;;;;;10.38;100.00;98329.28;5057290;28;20041;-59
2023/01/17 01:58:52;;;;;;;8.98;1.92;;;;;;;10.85;100.00;98337.63;5053577;28;20061;-59
2023/01/17 02:01:18;;;;;;;20.63;5.68;;;;;;;10.75;100.00;98338.38;5053636;28;20037;-59
2023/01/17 02:03:45;;;;;;;23.50;4.78;;;;;;;11.36;100.00;98349.63;5058418;28;20045;-59
2023/01/17 02:06:31;;;;;;;15.02;3.78;;;;;;;11.20;100.00;98338.88;5061322;28;20036;-59
2023/01/17 02:09:02;;;;;;;24.27;5.15;;;;;;;11.28;100.00;98350.94;5053989;28;20052;-57
2023/01/17 02:11:27;;;;;;;25.45;5.60;;;;;;;10.92;100.00;98356.91;5060874;28;20127;-58
2023/01/17 02:13:53;;;;;;;21.48;5.57;;;;;;;11.31;100.00;98369.97;5060043;28;20040;-59
2023/01/17 02:16:31;;;;;;;11.63;3.25;;;;;;;11.00;100.00;98375.13;5066720;28;20025;-59
2023/01/17 02:19:20;;;;;;;7.70;2.13;;;;;;;10.66;100.00;98380.81;5055039;28;20029;-58
2023/01/17 02:22:17;;;;;;;9.15;3.33;;;;;;;11.10;100.00;98389.66;5059461;28;20067;-56
2023/01/17 02:25:19;;;;;;;9.68;2.95;;;;;;;10.12;100.00;98387.00;5063528;28;20039;-60
2023/01/17 02:28:08;;;;;;;8.77;3.42;;;;;;;9.85;100.00;98391.28;5063647;28;20041;-61
2023/01/17 02:30:40;;;;;;;12.10;1.85;;;;;;;9.53;100.00;98394.66;5063628;28;20063;-58
2023/01/17 02:33:35;;;;;;;7.85;1.00;;;;;;;9.51;100.00;98410.13;5055404;28;20105;-61
2023/01/17 02:36:17;;;;;;;9.60;1.13;;;;;;;10.43;100.00;98414.03;5052617;28;20048;-60
2023/01/17 02:38:55;;;;;;;8.77;1.52;;;;;;;10.15;100.00;98403.34;5058937;28;20036;-59
2023/01/17 02:41:28;;;;;;;2.08;1.33;;;;;;;10.30;100.00;98400.00;5062236;28;20037;-60
2023/01/17 02:43:54;;;;;;;6.88;1.30;;;;;;;10.47;100.00;98383.88;5058756;28;20049;-60
2023/01/17 02:46:19;;;;;;;3.10;0.97;;;;;;;10.68;100.00;98394.72;5062155;28;20033;-59
2023/01/17 02:48:46;;;;;;;1.50;0.70;;;;;;;10.27;100.00;98389.00;5060512;28;20033;-60
2023/01/17 02:51:43;;;;;;;6.47;1.20;;;;;;;10.34;100.00;98373.56;5058701;28;20032;-59
2023/01/17 02:54:24;;;;;;;3.30;1.30;;;;;;;10.44;100.00;98367.53;5058032;28;20100;-60
2023/01/17 02:57:16;;;;;;;6.25;1.42;;;;;;;10.43;100.00;98369.41;5056428;28;20035;-58
2023/01/17 02:59:57;;;;;;;6.50;0.98;;;;;;;10.76;100.00;98378.19;5056413;28;20040;-60
2023/01/17 03:02:34;;;;;;;7.88;1.92;;;;;;;10.86;100.00;98382.81;5054056;28;20037;-59
2023/01/17 03:05:10;;;;;;;8.88;2.10;;;;;;;10.45;100.00;98386.00;5053291;28;20030;-59
2023/01/17 03:07:38;;;;;;;9.57;1.95;;;;;;;10.73;100.00;98386.75;5056155;28;20029;-61
2023/01/17 03:10:05;;;;;;;4.95;1.30;;;;;;;10.61;100.00;98392.25;5054989;28;20396;-60
2023/01/17 03:12:36;;;;;;;7.90;1.40;;;;;;;10.19;100.00;98392.94;5056167;28;20049;-57
2023/01/17 03:15:01;;;;;;;9.80;1.73;;;;;;;10.45;100.00;98403.88;5057170;28;20067;-57
2023/01/17 03:17:31;;;;;;;10.37;1.60;;;;;;;10.86;100.00;98398.06;5059473;28;20029;-59
2023/01/17 03:19:56;;;;;;;10.50;1.55;;;;;;;10.12;100.00;98401.16;5060457;28;23704;-58
2023/01/17 03:22:22;;;;;;;8.33;2.10;;;;;;;10.08;100.00;98402.72;5062747;28;20043;-59
2023/01/17 03:24:48;;;;;;;15.70;1.33;;;;;;;10.46;100.00;98410.84;5056248;28;20040;-55
2023/01/17 03:27:14;;;;;;;12.85;2.03;;;;;;;11.27;100.00;98427.72;5055404;28;20034;-58
2023/01/17 03:29:39;;;;;;;8.87;2.00;;;;;;;11.31;100.00;98422.66;5057125;28;20040;-59
2023/01/17 03:32:05;;;;;;;4.10;1.20;;;;;;;10.80;100.00;98421.28;5064177;28;20029;-60
2023/01/17 03:34:30;;;;;;;7.57;1.73;;;;;;;10.84;100.00;98432.25;5056169;28;20036;-59
2023/01/17 03:36:55;;;;;;;5.77;1.20;;;;;;;10.44;100.00;98427.16;5059476;28;20098;-58
2023/01/17 03:39:21;;;;;;;11.10;2.22;;;;;;;10.53;100.00;98429.34;5056688;28;20044;-57
2023/01/17 03:41:46;;;;;;;8.90;1.48;;;;;;;9.59;100.00;98422.22;5054304;28;20037;-59
2023/01/17 03:44:12;;;;;;;7.47;2.07;;;;;;;10.03;100.00;98427.53;5055017;28;20052;-57
2023/01/17 03:46:37;;;;;;;7.27;1.67;;;;;;;10.35;100.00;98422.47;5060012;28;20281;-58
2023/01/17 03:49:03;;;;;;;15.50;1.63;;;;;;;10.41;100.00;98426.84;5059661;28;20043;-59
2023/01/17 03:51:28;;;;;;;10.10;2.43;;;;;;;9.46;100.00;98444.75;5053815;28;20267;-60
2023/01/17 03:53:54;;;;;;;8.03;1.50;;;;;;;9.57;100.00;98438.47;5055693;28;20030;-59
2023/01/17 03:56:20;;;;;;;3.95;1.38;;;;;;;9.71;100.00;98448.78;5052825;28;20132;-57
2023/01/17 03:58:46;;;;;;;13.48;2.47;;;;;;;10.00;100.00;98451.25;5056691;28;20037;-60
2023/01/17 04:01:11;;;;;;;14.33;2.97;;;;;;;9.56;100.00;98450.19;5059907;28;20088;-59
2023/01/17 04:03:37;;;;;;;7.55;2.65;;;;;;;10.12;100.00;98451.09;5062812;28;20037;-56
2023/01/17 04:06:03;;;;;;;14.95;2.53;;;;;;;10.00;100.00;98453.91;5058316;28;20045;-58
2023/01/17 04:08:29;;;;;;;10.18;2.58;;;;;;;10.07;100.00;98454.53;5055998;28;20044;-59
2023/01/17 04:10:55;;;;;;;10.00;2.67;;;;;;;9.96;100.00;98452.81;5059651;28;20042;-59
2023/01/17 04:13:21;;;;;;;7.15;2.85;;;;;;;9.91;100.00;98442.88;5059197;28;20033;-58
2023/01/17 04:15:49;;;;;;;11.45;3.17;;;;;;;10.23;100.00;98441.34;5063019;28;20044;-58
2023/01/17 04:18:16;;;;;;;8.73;2.67;;;;;;;10.52;100.00;98444.59;5062520;28;20035;-57
2023/01/17 04:20:43;;;;;;;6.18;2.80;;;;;;;9.96;100.00;98447.47;5062038;28;20033;-58
2023/01/17 04:23:08;;;;;;;5.30;2.90;;;;;;;10.00;100.00;98451.25;5061464;28;20030;-55
2023/01/17 04:25:34;;;;;;;8.90;3.57;;;;;;;9.78;100.00;98441.38;5058221;28;20285;-56
2023/01/17 04:28:02;;;;;;;12.38;3.58;;;;;;;9.64;100.00;98443.63;5061101;28;20099;-58
2023/01/17 04:30:28;;;;;;;15.02;3.22;;;;;;;9.45;100.00;98453.78;5059406;28;20056;-58
2023/01/17 04:32:54;;;;;;;8.13;3.45;;;;;;;9.40;100.00;98461.72;5054999;28;20050;-59
2023/01/17 04:35:21;;;;;;;9.18;2.85;;;;;;;9.58;100.00;98458.75;5059312;28;20100;-53
2023/01/17 04:37:46;;;;;;;7.55;3.13;;;;;;;9.84;100.00;98467.09;5059999;28;20056;-56
2023/01/17 04:40:12;;;;;;;7.57;3.37;;;;;;;10.05;100.00;98472.66;5058180;28;20036;-56
2023/01/17 04:42:37;;;;;;;14.73;4.22;;;;;;;10.54;100.00;98463.03;5061258;28;20033;-56
2023/01/17 04:45:04;;;;;;;10.60;3.40;;;;;;;10.58;100.00;98456.09;5061175;28;20041;-57
2023/01/17 04:47:29;;;;;;;7.82;3.33;;;;;;;10.88;100.00;98458.22;5060450;28;20117;-56
2023/01/17 04:49:54;;;;;;;6.03;2.77;;;;;;;10.22;100.00;98458.41;5057940;28;20037;-57
2023/01/17 04:52:20;;;;;;;10.10;2.93;;;;;;;10.01;100.00;98450.97;5059207;28;20035;-59
2023/01/17 04:54:48;;;;;;;7.38;2.78;;;;;;;10.25;100.00;98456.03;5053551;28;20098;-59
2023/01/17 04:57:15;;;;;;;9.80;2.75;;;;;;;10.40;100.00;98450.09;5059191;28;20056;-60
2023/01/17 04:59:41;;;;;;;10.07;3.17;;;;;;;10.31;100.00;98457.72;5056494;28;20125;-59
2023/01/17 05:02:06;;;;;;;4.55;2.40;;;;;;;10.03;100.00;98448.91;5061449;28;20037;-59
2023/01/17 05:04:32;;;;;;;9.45;2.50;;;;;;;10.27;100.00;98453.94;5057818;28;20098;-58
2023/01/17 05:06:57;;;;;;;6.97;2.57;;;;;;;10.33;100.00;98449.44;5052495;28;20072;-59
2023/01/17 05:09:23;;;;;;;6.03;3.03;;;;;;;10.26;100.00;98451.50;5062132;28;20274;-58
2023/01/17 05:11:49;;;;;;;8.30;2.55;;;;;;;10.40;100.00;98452.75;5060597;28;20029;-60
2023/01/17 05:14:15;;;;;;;10.18;3.03;;;;;;;10.26;100.00;98459.53;5064474;28;20033;-57
2023/01/17 05:16:41;;;;;;;15.20;4.17;;;;;;;9.96;100.00;98458.16;5061255;28;20055;-58
2023/01/17 05:19:06;;;;;;;5.47;2.77;;;;;;;9.56;100.00;98460.06;5065095;28;20029;-58
2023/01/17 05:21:32;;;;;;;8.23;3.08;;;;;;;9.75;100.00;98458.69;5062735;28;20036;-60
2023/01/17 05:23:57;;;;;;;14.48;2.60;;;;;;;9.83;100.00;98468.13;5060292;28;20033;-60
2023/01/17 05:26:23;;;;;;;11.80;2.47;;;;;;;9.98;100.00;98480.06;5066496;28;20040;-58
2023/01/17 05:28:49;;;;;;;7.30;2.33;;;;;;;9.88;100.00;98476.19;5062135;28;20375;-58
2023/01/17 05:31:15;;;;;;;11.60;4.15;;;;;;;9.79;100.00;98469.69;5061732;28;20040;-58
2023/01/17 05:33:40;;;;;;;8.60;2.20;;;;;;;9.90;100.00;98481.31;5063676;28;20148;-60
2023/01/17 05:36:06;;;;;;;7.10;1.83;;;;;;;9.39;100.00;98465.44;5061572;28;20278;-58
2023/01/17 05:38:32;;;;;;;7.25;3.03;;;;;;;10.22;100.00;98477.13;5062854;28;20120;-59
2023/01/17 05:40:59;;;;;;;9.10;2.53;;;;;;;10.26;100.00;98479.00;5061461;28;20033;-57
2023/01/17 05:43:24;;;;;;;;;;;;;;;9.52;100.00;98480.28;5058809;28;20064;-58
2023/01/17 05:45:50;;;;;;;7.23;1.53;;;;;;;9.03;100.00;98477.22;5058325;28;19948;-58
2023/01/17 05:48:15;;;;;;;12.63;2.07;;;;;;;9.60;100.00;98477.22;5066395;28;20038;-56
2023/01/17 05:50:41;;;;;;;4.77;1.57;;;;;;;9.85;100.00;98482.03;5059874;28;20278;-57
2023/01/17 05:53:09;;;;;;;10.27;3.33;;;;;;;9.74;100.00;98483.78;5058185;28;20040;-58
2023/01/17 05:55:36;;;;;;;8.73;1.98;;;;;;;9.79;100.00;98484.88;5061653;28;20032;-58
2023/01/17 05:58:03;;;;;;;12.90;3.72;;;;;;;9.65;100.00;98479.94;5060606;28;20037;-59
2023/01/17 06:00:29;;;;;;;15.90;2.65;;;;;;;9.48;100.00;98474.66;5063236;28;20029;-58
2023/01/17 06:02:56;;;;;;;10.15;2.60;;;;;;;9.70;100.00;98487.22;5057385;28;20052;-57
2023/01/17 06:05:23;;;;;;;8.23;2.13;;;;;;;9.56;100.00;98487.56;5057637;28;20033;-58
2023/01/17 06:07:49;;;;;;;11.15;2.10;;;;;;;9.72;100.00;98493.09;5059842;28;20059;-58
2023/01/17 06:10:16;;;;;;;20.27;6.00;;;;;;;9.54;100.00;98487.00;5056281;28;20047;-51
2023/01/17 06:12:43;;;;;;;6.38;2.45;;;;;;;9.81;100.00;98488.94;5059211;28;20044;-53
2023/01/17 06:15:10;;;;;;;17.10;2.55;;;;;;;9.41;100.00;98485.50;5052509;28;20037;-57
2023/01/17 06:17:36;;;;;;;15.63;2.75;;;;;;;9.51;100.00;98479.50;5052068;28;20021;-53
2023/01/17 06:20:04;;;;;;;10.65;2.65;;;;;;;9.23;100.00;98483.09;5054902;28;20037;-55
2023/01/17 06:22:29;;;;;;;10.63;2.97;;;;;;;9.50;100.00;98487.72;5051645;28;20033;-56
2023/01/17 06:24:54;;;;;;;9.50;2.57;;;;;;;9.57;100.00;98483.00;5053727;28;20061;-58
2023/01/17 06:27:20;;;;;;;9.40;2.63;;;;;;;9.22;100.00;98487.59;5057900;28;20305;-56
2023/01/17 06:29:45;;;;;;;12.60;3.37;;;;;;;9.67;100.00;98488.50;5057800;28;20048;-57
2023/01/17 06:32:12;;;;;;;8.85;3.42;;;;;;;9.44;100.00;98484.19;5055519;28;20029;-58
2023/01/17 06:34:39;;;;;;;10.40;2.83;;;;;;;9.64;100.00;98488.19;5057439;28;20037;-58
2023/01/17 06:37:04;;;;;;;7.25;3.10;;;;;;;10.13;100.00;98495.44;5064954;28;20059;-53
2023/01/17 06:39:30;;;;;;;13.82;3.53;;;;;;;9.76;100.00;98488.88;5064996;28;20068;-55
2023/01/17 06:41:55;;;;;;;9.73;3.23;;;;;;;9.72;100.00;98498.44;5056699;28;20037;-57
2023/01/17 06:44:21;;;;;;;15.70;3.42;;;;;;;9.83;100.00;98496.72;5059605;28;20105;-55
2023/01/17 06:46:46;;;;;;;15.60;3.40;;;;;;;9.92;100.00;98502.41;5058476;28;20041;-57
2023/01/17 06:49:13;;;;;;;13.43;3.40;;;;;;;10.00;100.00;98504.66;5056454;28;20033;-56
2023/01/17 06:51:38;;;;;;;8.23;3.45;;;;;;;10.13;100.00;98506.13;5057228;28;20067;-57
2023/01/17 06:54:04;;;;;;;17.60;3.17;;;;;;;10.48;100.00;98502.25;5057246;28;20110;-56
2023/01/17 06:56:31;;;;;;;13.45;3.78;;;;;;;10.27;100.00;98498.53;5056498;28;20033;-57
2023/01/17 06:58:56;;;;;;;;;;;;;;;9.64;100.00;98505.00;5058521;28;20039;-57
2023/01/17 07:01:22;;;;;;;11.90;3.00;;;;;;;10.16;100.00;98511.78;5062381;28;19975;-57
2023/01/17 07:03:48;;;;;;;14.67;4.00;;;;;;;9.99;100.00;98511.06;5056581;28;20061;-56
2023/01/17 07:06:13;;;;;;;9.05;3.13;;;;;;;10.25;100.00;98512.13;5055759;28;20029;-57
2023/01/17 07:08:39;;;;;;;10.93;2.63;;;;;;;9.86;100.00;98507.69;5061826;28;20052;-55
2023/01/17 07:11:09;;;;;;;7.82;2.25;;;;;;;9.87;100.00;98506.63;5059584;28;20052;-52
2023/01/17 07:13:35;;;;;;;16.70;3.58;;;;;;;9.90;100.00;98518.69;5055201;28;20030;-55
2023/01/17 07:16:02;;;;;;;11.65;3.58;;;;;;;9.92;100.00;98516.56;5060484;28;20060;-56
2023/01/17 07:18:28;;;;;;;21.23;4.45;;;;;;;10.38;100.00;98518.16;5061303;28;20056;-56
2023/01/17 07:20:54;;;;;;;11.23;4.70;;;;;;;10.61;100.00;98525.13;5055897;28;20060;-52
2023/01/17 07:23:22;;;;;;;10.43;4.23;;;;;;;9.87;100.00;98521.84;5056107;28;20275;-53
2023/01/17 07:25:59;;;;;;;13.57;4.32;;;;;;;10.03;100.00;98528.19;5057327;28;20030;-55
2023/01/17 07:28:26;;;;;;;16.48;5.60;;;;;;;10.00;100.00;98518.78;5059156;28;20033;-56
2023/01/17 07:30:53;;;;;;;14.23;5.13;;;;;;;10.16;100.00;98522.47;5057781;28;20215;-54
2023/01/17 07:33:19;;;;;;;13.30;4.72;;;;;;;10.31;100.00;98523.69;5058126;28;20049;-55
2023/01/17 07:35:45;;;;;;;26.95;6.32;;;;;;;9.90;100.00;98518.69;5057356;28;20052;-56
2023/01/17 07:38:16;;;;;;;21.27;6.63;;;;;;;9.76;100.00;98515.56;5062339;28;20040;-54
2023/01/17 07:40:41;;;;;;;14.75;5.95;;;;;;;9.90;100.00;98524.81;5062988;28;20064;-57
2023/01/17 07:43:12;;;;;;;23.92;6.90;;;;;;;9.71;100.00;98524.31;5063644;28;20032;-54
2023/01/17 07:45:50;;;;;;;25.65;7.72;;;;;;;9.60;100.00;98525.25;5063248;28;20065;-56
2023/01/17 07:48:16;;;;;;;;;;;;;;;9.84;100.00;98536.50;5061392;28;20103;-58
2023/01/17 07:50:42;;;;;;;19.05;8.13;;;;;;;9.61;100.00;98532.97;5064403;28;20066;-58
2023/01/17 07:53:09;;;;;;;17.35;8.77;;;;;;;9.55;100.00;98536.63;5061553;28;20033;-51
2023/01/17 07:55:34;;;;;;;25.30;9.90;;;;;;;10.06;100.00;98538.38;5068676;28;20040;-57
2023/01/17 07:58:00;;;;;;;26.33;11.30;;;;;;;10.01;100.00;98552.44;5063807;28;20022;-55
2023/01/17 08:00:26;;;;;;;19.88;8.30;;;;;;;9.56;100.00;98540.09;5061769;28;20056;-55
2023/01/17 08:02:58;;;;;;;32.25;12.13;;;;;;;9.97;100.00;98551.34;5061162;28;20039;-57
2023/01/17 08:05:25;;;;;;;30.13;12.88;;;;;;;9.85;100.00;98548.78;5062232;28;20029;-54
2023/01/17 08:07:51;;;;;;;30.33;13.18;;;;;;;10.02;100.00;98548.72;5059614;28;20064;-55
2023/01/17 08:10:16;;;;;;;27.63;13.33;;;;;;;10.31;100.00;98555.75;5064755;28;20034;-56
2023/01/17 08:12:47;;;;;;;43.90;14.75;;;;;;;9.90;100.00;98558.72;5060552;28;20281;-58
2023/01/17 08:15:16;;;;;;;30.15;14.80;;;;;;;10.22;100.00;98557.25;5063865;28;20037;-53
2023/01/17 08:17:52;;;;;;;33.85;14.50;;;;;;;9.35;100.00;98555.84;5061201;28;20041;-55
2023/01/17 08:20:19;;;;;;;28.38;14.05;;;;;;;9.72;100.00;98549.16;5061746;28;20036;-57
2023/01/17 08:22:44;;;;;;;31.42;15.43;;;;;;;9.89;100.00;98557.91;5061098;28;20041;-54
2023/01/17 08:25:11;;;;;;;31.95;14.68;;;;;;;10.43;100.00;98561.81;5060384;28;20044;-55
2023/01/17 08:27:37;;;;;;;34.53;14.93;;;;;;;10.30;100.00;98562.16;5061825;28;20056;-55
2023/01/17 08:30:04;;;;;;;;;;;;;;;9.96;100.00;98563.06;5062384;28;20288;-57
2023/01/17 08:32:30;;;;;;;34.15;15.48;;;;;;;10.61;100.00;98565.22;5058996;28;19917;-55
2023/01/17 08:34:56;;;;;;;34.58;14.20;;;;;;;9.79;100.00;98563.13;5064045;28;20040;-56
2023/01/17 08:37:22;;;;;;;26.00;13.80;;;;;;;9.39;100.00;98554.28;5064912;28;20105;-58
2023/01/17 08:39:48;;;;;;;20.35;10.88;;;;;;;9.89;100.00;98563.25;5059444;28;20037;-56
2023/01/17 08:42:14;;;;;;;42.23;15.37;;;;;;;10.09;100.00;98553.88;5061923;28;20036;-56
2023/01/17 08:44:40;;;;;;;33.22;16.60;;;;;;;10.16;100.00;98562.53;5061415;28;20311;-52
2023/01/17 08:47:05;;;;;;;26.63;14.57;;;;;;;10.32;100.00;98568.03;5060021;28;20065;-55
2023/01/17 08:49:31;;;;;;;43.08;16.92;;;;;;;10.09;100.00;98563.78;5056354;28;20032;-53
2023/01/17 08:51:57;;;;;;;31.40;16.23;;;;;;;9.68;100.00;98569.34;5058441;28;20037;-50
2023/01/17 08:54:22;;;;;;;34.55;16.33;;;;;;;9.70;100.00;98572.63;5057871;28;20041;-53
2023/01/17 08:56:49;;;;;;;37.57;16.13;;;;;;;9.33;100.00;98568.59;5057676;28;20029;-51
2023/01/17 08:59:14;;;;;;;34.55;15.93;;;;;;;10.18;100.00;98568.44;5061910;28;20301;-54
2023/01/17 09:01:40;;;;;;;32.50;15.97;;;;;;;10.47;100.00;98565.59;5060119;28;20037;-56
2023/01/17 09:04:09;;;;;;;29.08;13.98;;;;;;;9.97;100.00;98578.03;5058979;28;20100;-52
2023/01/17 09:06:39;;;;;;;30.27;14.13;;;;;;;10.50;100.00;98571.47;5057125;28;20041;-56
2023/01/17 09:09:06;;;;;;;33.22;15.13;;;;;;;11.00;100.00;98577.59;5056724;28;20088;-55
2023/01/17 09:11:33;;;;;;;29.20;12.80;;;;;;;10.73;100.00;98581.88;5059123;28;20030;-54
2023/01/17 09:14:00;;;;;;;33.20;13.68;;;;;;;10.43;100.00;98585.84;5055970;28;20052;-53
2023/01/17 09:16:27;;;;;;;27.63;13.18;;;;;;;10.17;100.00;98574.00;5057140;28;20096;-53
2023/01/17 09:18:54;;;;;;;36.10;13.85;;;;;;;10.71;100.00;98581.34;5055789;28;20048;-55
2023/01/17 09:21:20;;;;;;;27.33;12.95;;;;;;;10.50;100.00;98588.34;5059514;28;20042;-52
2023/01/17 09:23:46;;;;;;;28.05;14.68;;;;;;;10.55;100.00;98587.56;5058128;28;20133;-53
2023/01/17 09:26:27;;;;;;;28.85;12.27;;;;;;;10.81;100.00;98591.31;5055317;28;20036;-50
2023/01/17 09:28:53;;;;;;;24.67;11.10;;;;;;;11.09;100.00;98596.69;5053715;28;20133;-55
2023/01/17 09:31:21;;;;;;;27.60;11.63;;;;;;;11.32;100.00;98593.66;5058901;28;20037;-58
2023/01/17 09:33:48;;;;;;;25.25;11.88;;;;;;;12.38;100.00;98594.81;5063169;28;20120;-55
2023/01/17 09:36:14;;;;;;;31.23;14.68;;;;;;;12.37;100.00;98595.91;5060206;28;20037;-54
2023/01/17 09:38:39;;;;;;;25.93;12.23;;;;;;;12.22;100.00;98601.19;5056949;28;20036;-57
2023/01/17 09:41:22;;;;;;;19.10;9.30;;;;;;;11.89;100.00;98610.09;5064504;28;20327;-53
2023/01/17 09:43:55;;;;;;;19.88;9.65;;;;;;;11.52;100.00;98608.25;5063998;28;20278;-52
2023/01/17 09:46:29;;;;;;;16.98;9.73;;;;;;;11.39;100.00;98612.16;5061812;28;20021;-54
2023/01/17 09:49:06;;;;;;;21.15;10.05;;;;;;;11.83;99.56;98610.31;5061428;28;20026;-52
2023/01/17 09:51:31;;;;;;;18.95;9.00;;;;;;;12.58;97.20;98614.72;5062295;28;20041;-54
2023/01/17 09:53:57;;;;;;;18.80;9.55;;;;;;;12.67;97.97;98613.13;5053950;28;20037;-51
2023/01/17 09:56:29;;;;;;;21.37;9.27;;;;;;;12.65;95.64;98615.28;5057908;28;20040;-53
2023/01/17 09:58:55;;;;;;;20.73;9.45;;;;;;;12.51;94.18;98617.66;5053873;28;20263;-52
2023/01/17 10:01:52;;;;;;;19.63;9.77;;;;;;;12.73;96.72;98616.66;5055646;28;20040;-53
2023/01/17 10:04:47;;;;;;;17.85;7.68;;;;;;;12.73;93.85;98622.84;5058794;28;20049;-56
2023/01/17 10:07:51;;;;;;;17.67;8.95;;;;;;;12.85;92.78;98629.81;5058379;28;20047;-55
2023/01/17 10:10:39;;;;;;;18.88;9.18;;;;;;;12.90;92.58;98632.50;5061458;28;20033;-54
2023/01/17 10:13:13;;;;;;;20.02;8.63;;;;;;;12.87;93.09;98628.50;5060559;28;20064;-57
2023/01/17 10:16:02;;;;;;;16.48;8.93;;;;;;;12.80;92.86;98627.94;5059188;28;20029;-54
2023/01/17 10:19:00;;;;;;;21.35;8.90;;;;;;;13.23;91.52;98630.44;5057909;28;20044;-55
2023/01/17 10:21:48;;;;;;;17.83;9.47;;;;;;;12.84;92.24;98633.56;5058047;28;20032;-53
2023/01/17 10:24:44;;;;;;;18.73;8.70;;;;;;;12.93;92.30;98632.00;5060243;28;20100;-55
2023/01/17 10:27:20;;;;;;;17.13;8.52;;;;;;;13.30;91.03;98633.66;5059805;28;20041;-53
2023/01/17 10:29:49;;;;;;;21.33;9.17;;;;;;;13.41;89.26;98636.34;5065476;28;20037;-58
2023/01/17 10:32:15;;;;;;;17.50;9.02;;;;;;;12.74;91.15;98635.19;5060633;28;20032;-54
2023/01/17 10:34:50;;;;;;;18.20;8.23;;;;;;;12.42;91.84;98633.44;5062581;28;20029;-55
2023/01/17 10:37:25;;;;;;;16.10;8.48;;;;;;;12.60;92.83;98636.72;5063789;28;20051;-54
2023/01/17 10:39:54;;;;;;;26.13;8.57;;;;;;;12.64;93.61;98631.66;5058643;28;20041;-55
2023/01/17 10:42:24;;;;;;;20.73;9.43;;;;;;;12.66;93.86;98638.34;5059620;28;20104;-53
2023/01/17 10:45:00;;;;;;;19.27;9.25;;;;;;;13.71;89.36;98637.44;5058204;28;20040;-56
2023/01/17 10:47:31;;;;;;;15.75;8.38;;;;;;;13.45;89.90;98643.63;5060969;28;20101;-56
2023/01/17 10:49:58;;;;;;;17.38;8.93;;;;;;;12.86;88.42;98634.94;5058700;28;20033;-53
2023/01/17 10:52:31;;;;;;;17.60;8.07;;;;;;;12.96;87.76;98642.19;5061909;28;20044;-56
2023/01/17 10:55:21;;;;;;;17.58;8.15;;;;;;;13.39;88.43;98641.97;5058454;28;20036;-53
2023/01/17 10:57:49;;;;;;;19.10;8.52;;;;;;;13.31;88.48;98632.56;5056961;28;20033;-52
2023/01/17 11:00:34;;;;;;;16.30;7.70;;;;;;;13.58;86.66;98630.72;5059092;28;20075;-57
2023/01/17 11:03:01;;;;;;;17.20;8.20;;;;;;;13.06;85.88;98633.38;5058736;28;20040;-53
2023/01/17 11:05:31;;;;;;;20.08;9.77;;;;;;;12.94;87.96;98622.88;5058192;28;20048;-50
2023/01/17 11:08:05;;;;;;;18.70;9.75;;;;;;;14.76;85.50;98631.50;5055214;28;20097;-56
2023/01/17 11:10:48;;;;;;;15.82;8.65;;;;;;;15.40;81.92;98633.50;5055631;28;20041;-51
2023/01/17 11:13:23;;;;;;;12.48;7.53;;;;;;;16.31;74.88;98630.22;5060259;28;20037;-56
2023/01/17 11:15:56;;;;;;;13.40;6.65;;;;;;;15.53;74.24;98630.16;5059343;28;20128;-55
2023/01/17 11:18:26;;;;;;;23.33;7.53;;;;;;;17.17;73.50;98620.44;5063933;28;20085;-53
2023/01/17 11:20:53;;;;;;;14.60;6.63;;;;;;;18.77;67.70;98618.63;5063335;28;20293;-56
2023/01/17 11:23:29;;;;;;;17.00;6.03;;;;;;;18.94;62.93;98634.25;5062341;28;20277;-55
2023/01/17 11:25:59;;;;;;;20.52;6.38;;;;;;;20.57;62.53;98642.34;5059380;28;20270;-56
2023/01/17 11:28:30;;;;;;;11.67;5.10;;;;;;;19.69;55.04;98635.78;5066351;28;20041;-57
2023/01/17 11:31:08;;;;;;;11.67;4.90;;;;;;;17.41;61.08;98633.06;5062166;28;20271;-55
2023/01/17 11:33:47;;;;;;;13.23;5.20;;;;;;;16.78;66.34;98633.13;5061839;28;20288;-55
2023/01/17 11:36:26;;;;;;;11.43;5.13;;;;;;;17.34;66.14;98627.22;5059727;28;20353;-57
2023/01/17 11:38:56;;;;;;;8.90;4.80;;;;;;;17.22;66.86;98630.38;5060194;28;20255;-56
2023/01/17 11:41:23;;;;;;;9.20;4.53;;;;;;;17.59;63.57;98636.81;5061475;28;20282;-56
2023/01/17 11:43:53;;;;;;;8.90;4.53;;;;;;;16.58;67.21;98633.41;5059090;28;20274;-57
2023/01/17 11:46:19;;;;;;;10.97;4.30;;;;;;;16.05;64.22;98635.91;5057758;28;20270;-56
2023/01/17 11:48:50;;;;;;;9.80;4.07;;;;;;;16.04;68.38;98633.50;5062169;28;20262;-55
2023/01/17 11:51:22;;;;;;;7.90;4.47;;;;;;;15.90;65.60;98633.38;5061305;28;20064;-53
2023/01/17 11:53:48;;;;;;;12.80;5.70;;;;;;;16.09;66.58;98621.84;5059706;28;20313;-54
2023/01/17 11:56:24;;;;;;;12.70;5.38;;;;;;;18.47;63.45;98629.84;5057914;28;20297;-58
2023/01/17 11:58:50;;;;;;;8.87;5.53;;;;;;;18.58;61.90;98629.59;5059481;28;20045;-56
2023/01/17 12:01:41;;;;;;;8.88;4.70;;;;;;;18.20;62.57;98625.22;5063791;28;20712;-53
2023/01/17 12:04:21;;;;;;;9.83;4.30;;;;;;;18.06;63.18;98619.81;5063843;28;20108;-58
2023/01/17 12:07:16;;;;;;;9.47;4.53;;;;;;;19.40;62.32;98626.97;5062002;28;20290;-53
2023/01/17 12:09:57;;;;;;;8.50;4.40;;;;;;;20.89;57.76;98626.78;5061367;28;20269;-55
2023/01/17 12:15:35;;;;;;;12.33;4.70;;;;;;;23.42;50.77;98635.38;5059883;28;20044;-54
2023/01/17 12:18:16;;;;;;;12.73;4.30;;;;;;;23.80;49.32;98635.47;5058180;28;20029;-56
2023/01/17 12:21:04;;;;;;;12.43;4.30;;;;;;;25.16;45.07;98634.63;5061941;28;20045;-55
2023/01/17 12:23:45;;;;;;;;;;;;;;;24.44;45.54;98631.31;5062389;28;20036;-55
2023/01/17 12:26:36;;;;;;;9.57;3.57;;;;;;;23.61;47.71;98623.94;5063006;28;20003;-56
2023/01/17 12:29:19;;;;;;;9.67;3.03;;;;;;;22.62;47.42;98623.47;5061644;28;20041;-56
2023/01/17 12:31:54;;;;;;;6.83;3.47;;;;;;;20.38;48.08;98626.34;5061942;28;20084;-56
2023/01/17 12:34:49;;;;;;;9.50;3.80;;;;;;;20.92;52.19;98622.63;5063137;28;20045;-57
2023/01/17 12:37:29;;;;;;;7.70;3.67;;;;;;;21.58;46.91;98616.16;5058073;28;20100;-58
2023/01/17 12:40:30;;;;;;;10.50;3.10;;;;;;;23.05;47.13;98618.81;5061982;28;20033;-56
2023/01/17 12:43:35;;;;;;;8.50;3.90;;;;;;;24.39;45.25;98617.88;5057489;28;20025;-56
2023/01/17 12:46:19;;;;;;;11.03;4.53;;;;;;;25.66;44.15;98616.03;5059885;28;20064;-57
2023/01/17 12:48:54;;;;;;;14.37;5.97;;;;;;;26.51;41.43;98625.09;5072351;28;20044;-57
2023/01/17 12:51:27;;;;;;;12.43;4.60;;;;;;;25.86;40.26;98627.09;5059281;28;20040;-56
2023/01/17 12:54:14;;;;;;;5.77;3.40;;;;;;;26.30;40.82;98627.00;5062138;28;20060;-58
2023/01/17 12:56:49;;;;;;;;;;;;;;;26.51;39.64;98630.59;5062338;28;20026;-56
2023/01/17 12:59:36;;;;;;;39.07;17.77;;;;;;;26.52;39.03;98626.69;5058179;28;19913;-59
2023/01/17 13:02:17;;;;;;;6.95;3.03;;;;;;;25.16;39.76;98620.94;5059366;28;20113;-58
2023/01/17 13:05:01;;;;;;;8.27;3.20;;;;;;;25.94;35.84;98619.84;5062537;28;20037;-56
2023/01/17 13:07:44;;;;;;;7.10;2.70;;;;;;;24.98;39.65;98623.97;5061178;28;20036;-56